Time;durP1;ratioP1;P1;durP2;ratioP2;P2;SDS_P1;SDS_P2;PMS_P1;PMS_P2;Temp;Humidity;BMP_temperature;BMP_pressure;BME280_temperature;BME280_humidity;BME280_pressure;Samples;Min_cycle;Max_cycle;Signal;HPM_P1;HPM_P2
2023/03/08 00:00:39;;;;;;;7.80;4.50;;;;;;;4.49;57.72;96714.09;5074060;28;20208;-83
2023/03/08 00:03:06;;;;;;;5.43;4.00;;;;;;;4.49;58.11;96714.09;5074047;28;20237;-83
2023/03/08 00:05:33;;;;;;;8.17;5.23;;;;;;;4.47;57.76;96715.94;5073694;28;20220;-84
2023/03/08 00:08:01;;;;;;;8.60;4.87;;;;;;;4.46;57.75;96713.47;5073137;28;20258;-83
2023/03/08 00:10:27;;;;;;;7.73;5.10;;;;;;;4.43;57.89;96713.66;5073747;28;20212;-83
2023/03/08 00:12:54;;;;;;;9.47;4.73;;;;;;;4.46;58.06;96719.50;5073608;28;20736;-83
2023/03/08 00:15:20;;;;;;;7.37;4.37;;;;;;;4.42;58.90;96723.28;5073582;28;20204;-83
2023/03/08 00:17:47;;;;;;;5.97;4.70;;;;;;;4.47;58.25;96730.81;5073363;28;20259;-84
2023/03/08 00:20:14;;;;;;;7.07;4.20;;;;;;;4.46;58.47;96716.91;5073263;28;20203;-84
2023/03/08 00:22:41;;;;;;;6.43;4.80;;;;;;;4.43;57.92;96721.50;5073121;28;20729;-83
2023/03/08 00:25:10;;;;;;;7.37;4.87;;;;;;;4.36;58.30;96728.09;5073495;28;20212;-83
2023/03/08 00:27:38;;;;;;;6.83;4.43;;;;;;;4.39;58.14;96733.94;5072917;28;20249;-84
2023/03/08 00:30:06;;;;;;;8.07;5.30;;;;;;;4.35;58.13;96731.66;5073321;28;20215;-83
2023/03/08 00:32:32;;;;;;;8.03;5.30;;;;;;;4.27;58.38;96729.53;5073475;28;20211;-84
2023/03/08 00:34:59;;;;;;;8.00;5.47;;;;;;;4.21;59.02;96735.16;5073212;28;20218;-84
2023/03/08 00:37:25;;;;;;;6.87;4.90;;;;;;;4.17;58.85;96738.91;5072915;28;20227;-83
2023/03/08 00:39:53;;;;;;;7.27;4.87;;;;;;;4.14;58.86;96744.34;5073491;28;20220;-84
2023/03/08 00:42:21;;;;;;;8.33;5.10;;;;;;;4.16;58.83;96744.25;5073191;28;20234;-84
2023/03/08 00:44:48;;;;;;;6.83;5.13;;;;;;;4.24;58.96;96755.06;5073137;28;20212;-84
2023/03/08 00:49:49;;;;;;;8.20;5.50;;;;;;;4.25;58.98;96739.25;5051311;28;20280;-80
2023/03/08 00:52:15;;;;;;;7.70;4.90;;;;;;;4.27;58.27;96733.94;5052579;28;20205;-81
2023/03/08 00:54:42;;;;;;;8.67;5.70;;;;;;;4.15;58.96;96729.53;5052662;28;20211;-80
2023/03/08 00:57:09;;;;;;;8.83;5.27;;;;;;;4.07;59.87;96727.41;5052309;28;20209;-80
2023/03/08 00:59:37;;;;;;;8.97;5.40;;;;;;;4.16;59.18;96724.16;5052374;28;20253;-80
2023/03/08 01:02:03;;;;;;;7.97;5.50;;;;;;;4.18;59.68;96708.38;5052664;28;20709;-80
2023/03/08 01:04:32;;;;;;;7.40;5.30;;;;;;;4.23;59.13;96701.91;5052789;28;20204;-80
2023/03/08 01:07:00;;;;;;;9.70;6.03;;;;;;;4.27;58.96;96692.91;5052376;28;20208;-80
2023/03/08 01:09:26;;;;;;;9.80;5.60;;;;;;;4.28;59.19;96694.59;5051953;28;20231;-80
2023/03/08 01:11:53;;;;;;;10.23;6.00;;;;;;;4.24;59.67;96695.75;5052475;28;20593;-82
2023/03/08 01:14:20;;;;;;;9.67;6.23;;;;;;;4.15;60.04;96690.31;5052273;28;20214;-79
2023/03/08 01:16:47;;;;;;;8.97;6.07;;;;;;;3.97;60.59;96702.81;5051880;28;20204;-80
2023/03/08 01:19:14;;;;;;;7.97;5.97;;;;;;;3.83;60.46;96705.47;5052222;28;20239;-80
2023/03/08 01:21:40;;;;;;;10.97;6.23;;;;;;;3.64;61.08;96696.31;5052403;28;20214;-79
2023/03/08 01:24:07;;;;;;;9.80;5.60;;;;;;;3.58;61.64;96692.34;5052337;28;20237;-80
2023/03/08 01:26:33;;;;;;;9.90;6.10;;;;;;;3.54;61.34;96687.41;5051705;28;20208;-79
2023/03/08 01:29:00;;;;;;;12.50;6.67;;;;;;;3.42;62.13;96681.19;5051716;28;20231;-80
2023/03/08 01:31:28;;;;;;;11.50;6.83;;;;;;;3.29;62.80;96695.13;5051922;28;20693;-80
2023/03/08 01:33:57;;;;;;;9.90;6.00;;;;;;;3.30;62.40;96684.59;5051902;28;20237;-79
2023/03/08 01:36:26;;;;;;;10.07;6.87;;;;;;;3.28;62.92;96683.84;5051952;28;20209;-80
2023/03/08 01:38:52;;;;;;;15.00;7.03;;;;;;;3.22;63.22;96684.25;5051800;28;20726;-80
2023/03/08 01:41:22;;;;;;;10.73;6.43;;;;;;;3.14;63.43;96693.47;5051879;28;20719;-80
2023/03/08 01:43:49;;;;;;;10.77;7.00;;;;;;;3.07;64.12;96689.59;5051567;28;20231;-80
2023/03/08 01:46:25;;;;;;;10.37;6.53;;;;;;;3.05;64.55;96688.84;5051451;28;20207;-80
2023/03/08 01:49:00;;;;;;;9.37;6.20;;;;;;;2.93;64.75;96687.81;5051571;28;20247;-80
2023/03/08 01:51:33;;;;;;;10.73;6.27;;;;;;;2.88;65.25;96684.66;5051704;28;20685;-80
2023/03/08 01:54:03;;;;;;;11.00;6.90;;;;;;;2.79;66.03;96690.44;5051971;28;20235;-80
2023/03/08 01:56:29;;;;;;;11.27;6.73;;;;;;;2.75;66.41;96685.53;5051428;28;20211;-80
2023/03/08 01:58:57;;;;;;;12.27;7.80;;;;;;;2.81;66.27;96683.34;5050623;28;20235;-80
2023/03/08 02:01:24;;;;;;;13.47;6.83;;;;;;;2.76;66.25;96682.81;5048399;28;20212;-79
2023/03/08 02:03:51;;;;;;;10.73;6.50;;;;;;;2.70;66.87;96687.56;5049849;28;20228;-79
2023/03/08 02:06:20;;;;;;;12.83;7.80;;;;;;;2.63;67.17;96692.31;5051085;28;20594;-80
2023/03/08 02:08:47;;;;;;;11.77;7.47;;;;;;;2.63;67.79;96688.88;5051160;28;20236;-80
2023/03/08 02:11:14;;;;;;;11.13;7.10;;;;;;;2.69;67.60;96684.09;5051436;28;20560;-80
2023/03/08 02:13:42;;;;;;;9.63;6.93;;;;;;;2.63;68.12;96681.06;5051209;28;20204;-80
2023/03/08 02:16:13;;;;;;;13.23;7.73;;;;;;;2.57;68.60;96690.06;5050908;28;20547;-79
2023/03/08 02:18:50;;;;;;;13.33;7.73;;;;;;;2.53;68.75;96688.59;5051305;28;20263;-79
2023/03/08 02:21:16;;;;;;;12.93;6.90;;;;;;;2.47;69.46;96688.97;5050316;28;20220;-78
2023/03/08 02:23:44;;;;;;;11.67;7.67;;;;;;;2.56;69.28;96691.00;5051417;28;20242;-80
2023/03/08 02:26:11;;;;;;;13.00;7.67;;;;;;;2.60;68.93;96678.63;5050881;28;20689;-79
2023/03/08 02:28:38;;;;;;;9.30;6.63;;;;;;;2.68;69.01;96674.63;5051448;28;20246;-79
2023/03/08 02:31:05;;;;;;;10.67;7.00;;;;;;;2.79;68.69;96661.75;5065105;28;20207;-78
2023/03/08 02:33:33;;;;;;;11.67;7.47;;;;;;;2.85;68.03;96653.56;5074756;28;20206;-80
2023/03/08 02:36:01;;;;;;;11.67;6.80;;;;;;;2.92;67.85;96649.63;5070984;28;20210;-80
2023/03/08 02:38:28;;;;;;;10.47;7.10;;;;;;;2.97;67.66;96651.94;5074545;28;20237;-80
2023/03/08 02:40:56;;;;;;;11.90;6.93;;;;;;;2.98;67.60;96648.38;5072824;28;20208;-80
2023/03/08 02:43:23;;;;;;;12.27;6.83;;;;;;;3.03;67.60;96644.56;5076177;28;20232;-80
2023/03/08 02:45:49;;;;;;;11.33;7.27;;;;;;;3.10;67.07;96643.25;5060645;28;20214;-80
2023/03/08 02:48:17;;;;;;;12.23;7.47;;;;;;;3.16;66.85;96632.41;5050410;28;20244;-81
2023/03/08 02:50:43;;;;;;;10.77;6.87;;;;;;;3.20;67.10;96628.69;5050719;28;20208;-80
2023/03/08 02:53:10;;;;;;;12.83;7.30;;;;;;;3.24;66.48;96630.16;5050846;28;20290;-79
2023/03/08 02:55:36;;;;;;;10.60;7.10;;;;;;;3.34;66.02;96631.25;5050785;28;20215;-80
2023/03/08 02:58:05;;;;;;;12.00;7.00;;;;;;;3.42;66.04;96622.91;5050372;28;20718;-80
2023/03/08 03:00:32;;;;;;;11.53;6.53;;;;;;;3.38;65.84;96621.44;5050668;28;20211;-79
2023/03/08 03:02:58;;;;;;;11.93;6.90;;;;;;;3.37;65.88;96620.59;5050486;28;20246;-79
2023/03/08 03:05:25;;;;;;;11.27;7.13;;;;;;;3.39;65.74;96616.13;5050848;28;20214;-79
2023/03/08 03:07:54;;;;;;;14.07;7.67;;;;;;;3.43;65.08;96612.34;5050323;28;20243;-79
2023/03/08 03:10:20;;;;;;;10.33;6.83;;;;;;;3.42;65.21;96595.03;5050596;28;20659;-80
2023/03/08 03:12:47;;;;;;;10.47;6.60;;;;;;;3.47;64.98;96600.78;5050567;28;20210;-79
2023/03/08 03:15:15;;;;;;;11.73;7.33;;;;;;;3.47;65.15;96585.13;5050620;28;20207;-79
2023/03/08 03:17:41;;;;;;;11.80;7.27;;;;;;;3.42;65.71;96576.75;5050090;28;20227;-79
2023/03/08 03:20:09;;;;;;;10.53;6.83;;;;;;;3.43;65.43;96575.78;5050720;28;20214;-79
2023/03/08 03:22:36;;;;;;;10.37;6.77;;;;;;;3.45;64.64;96567.88;5050568;28;20222;-79
2023/03/08 03:25:03;;;;;;;11.73;6.47;;;;;;;3.46;65.30;96562.56;5050675;28;20211;-79
2023/03/08 03:27:30;;;;;;;10.53;7.10;;;;;;;3.51;64.89;96549.19;5050035;28;20699;-81
2023/03/08 03:29:56;;;;;;;9.60;6.40;;;;;;;3.46;65.01;96556.47;5050434;28;20656;-79
2023/03/08 03:32:24;;;;;;;9.70;6.67;;;;;;;3.43;64.88;96552.28;5052067;28;20300;-79
2023/03/08 03:34:51;;;;;;;9.83;7.00;;;;;;;3.43;65.41;96551.47;5054365;28;20252;-81
2023/03/08 03:37:17;;;;;;;10.43;6.67;;;;;;;3.41;65.47;96555.94;5053682;28;20217;-81
2023/03/08 03:39:44;;;;;;;10.50;7.20;;;;;;;3.37;65.74;96563.16;5054277;28;20210;-80
2023/03/08 03:42:10;;;;;;;16.03;7.67;;;;;;;3.38;66.66;96562.22;5054144;28;20207;-80
2023/03/08 03:44:37;;;;;;;12.00;7.33;;;;;;;3.33;66.56;96563.44;5053860;28;20232;-80
2023/03/08 03:47:03;;;;;;;10.73;7.27;;;;;;;3.29;66.78;96555.00;5053926;28;20221;-80
2023/03/08 03:49:31;;;;;;;10.07;6.43;;;;;;;3.19;66.81;96548.69;5053764;28;20238;-85
2023/03/08 03:51:58;;;;;;;10.87;7.03;;;;;;;3.10;66.81;96544.06;5054048;28;20588;-81
2023/03/08 03:54:25;;;;;;;11.77;6.43;;;;;;;3.02;67.24;96556.78;5054065;28;20208;-81
2023/03/08 03:56:51;;;;;;;10.13;6.40;;;;;;;2.86;67.92;96540.44;5053508;28;20208;-81
2023/03/08 03:59:18;;;;;;;10.07;6.13;;;;;;;2.66;68.74;96548.69;5053730;28;20235;-81
2023/03/08 04:01:44;;;;;;;10.03;6.47;;;;;;;2.54;69.44;96557.28;5053623;28;20211;-81
2023/03/08 04:04:11;;;;;;;10.10;6.23;;;;;;;2.49;69.93;96561.94;5054213;28;20241;-80
2023/03/08 04:06:38;;;;;;;9.20;6.37;;;;;;;2.49;69.78;96561.94;5053350;28;20211;-81
2023/03/08 04:09:07;;;;;;;10.93;6.40;;;;;;;2.47;69.51;96558.59;5053673;28;20236;-80
2023/03/08 04:11:36;;;;;;;11.97;6.50;;;;;;;2.47;70.17;96550.78;5053397;28;20214;-80
2023/03/08 04:14:03;;;;;;;11.07;6.57;;;;;;;2.49;70.39;96540.25;5053659;28;20211;-81
2023/03/08 04:16:31;;;;;;;12.13;6.80;;;;;;;2.55;70.29;96540.72;5053263;28;20219;-80
2023/03/08 04:19:00;;;;;;;12.13;6.87;;;;;;;2.65;70.10;96536.59;5053352;28;20234;-81
2023/03/08 04:21:28;;;;;;;12.00;7.10;;;;;;;2.68;69.76;96530.31;5053353;28;20239;-80
2023/03/08 04:23:56;;;;;;;13.00;6.93;;;;;;;2.70;69.56;96518.84;5053401;28;20236;-81
2023/03/08 04:26:23;;;;;;;11.03;6.67;;;;;;;2.73;69.40;96523.91;5052911;28;20231;-80
2023/03/08 04:28:50;;;;;;;11.60;7.27;;;;;;;2.85;69.04;96522.25;5053128;28;20258;-80
2023/03/08 04:31:19;;;;;;;10.20;6.70;;;;;;;2.91;68.72;96517.50;5053224;28;20663;-80
2023/03/08 04:33:46;;;;;;;12.23;6.70;;;;;;;3.03;68.31;96521.94;5053148;28;20211;-80
2023/03/08 04:36:14;;;;;;;10.40;6.53;;;;;;;3.17;67.56;96519.25;5052841;28;20212;-81
2023/03/08 04:38:41;;;;;;;14.20;6.83;;;;;;;3.23;67.28;96512.78;5052777;28;20228;-81
2023/03/08 04:41:10;;;;;;;9.80;6.50;;;;;;;3.25;67.33;96509.13;5053109;28;20204;-81
2023/03/08 04:43:38;;;;;;;9.50;6.10;;;;;;;3.28;67.06;96506.31;5052169;28;20234;-81
2023/03/08 04:46:05;;;;;;;9.97;6.67;;;;;;;3.29;67.03;96501.94;5052897;28;20218;-81
2023/03/08 04:48:31;;;;;;;10.40;6.60;;;;;;;3.31;67.19;96495.66;5052814;28;20616;-81
2023/03/08 04:51:00;;;;;;;9.87;6.37;;;;;;;3.33;67.23;96499.03;5052909;28;20204;-81
2023/03/08 04:53:27;;;;;;;11.57;7.07;;;;;;;3.35;67.32;96481.47;5052841;28;20230;-80
2023/03/08 04:55:55;;;;;;;11.83;6.97;;;;;;;3.37;66.79;96479.59;5052950;28;20242;-81
2023/03/08 04:58:23;;;;;;;10.83;7.37;;;;;;;3.42;66.64;96476.69;5052413;28;20238;-80
2023/03/08 05:00:49;;;;;;;10.57;6.33;;;;;;;3.43;66.21;96468.75;5052621;28;20653;-81
2023/03/08 05:03:16;;;;;;;10.97;6.80;;;;;;;3.42;67.25;96461.84;5052595;28;20231;-81
2023/03/08 05:05:46;;;;;;;9.67;6.17;;;;;;;3.43;66.96;96458.28;5052518;28;20223;-81
2023/03/08 05:08:13;;;;;;;11.40;6.47;;;;;;;3.43;67.51;96457.47;5051963;28;20231;-80
2023/03/08 05:10:39;;;;;;;10.20;6.07;;;;;;;3.42;67.31;96461.84;5052626;28;20213;-81
2023/03/08 05:13:06;;;;;;;9.87;6.20;;;;;;;3.38;67.28;96457.78;5052513;28;20208;-80
2023/03/08 05:15:34;;;;;;;10.60;7.17;;;;;;;3.42;67.25;96446.19;5052316;28;20212;-81
2023/03/08 05:18:00;;;;;;;10.80;6.80;;;;;;;3.53;66.58;96435.84;5052007;28;20236;-80
2023/03/08 05:20:27;;;;;;;10.07;6.50;;;;;;;3.60;65.50;96434.50;5052038;28;20224;-80
2023/03/08 05:22:53;;;;;;;11.03;6.43;;;;;;;3.56;65.67;96440.84;5052120;28;20208;-80
2023/03/08 05:25:20;;;;;;;10.47;6.50;;;;;;;3.68;64.83;96437.41;5052252;28;20277;-81
2023/03/08 05:27:46;;;;;;;10.33;6.70;;;;;;;3.68;65.06;96436.59;5051748;28;20227;-80
2023/03/08 05:30:13;;;;;;;10.80;7.27;;;;;;;3.67;65.39;96440.97;5051882;28;20706;-80
2023/03/08 05:32:41;;;;;;;10.30;6.80;;;;;;;3.69;65.11;96433.88;5052038;28;20222;-81
2023/03/08 05:35:09;;;;;;;10.93;7.33;;;;;;;3.69;65.44;96428.66;5051771;28;20211;-80
2023/03/08 05:37:35;;;;;;;13.03;7.40;;;;;;;3.73;65.29;96427.47;5051539;28;20226;-80
2023/03/08 05:40:04;;;;;;;13.17;7.03;;;;;;;3.78;65.65;96429.78;5051849;28;20559;-81
2023/03/08 05:42:31;;;;;;;11.30;6.97;;;;;;;3.84;65.04;96417.13;5051740;28;20210;-81
2023/03/08 05:44:57;;;;;;;11.23;7.10;;;;;;;3.83;65.52;96412.84;5051697;28;20227;-81
2023/03/08 05:47:24;;;;;;;11.57;7.30;;;;;;;3.85;65.17;96403.09;5051051;28;20220;-81
2023/03/08 05:49:52;;;;;;;11.13;7.10;;;;;;;3.91;65.06;96394.03;5051730;28;20214;-80
2023/03/08 05:52:18;;;;;;;12.33;7.70;;;;;;;4.00;64.63;96390.75;5051747;28;20208;-80
2023/03/08 05:54:45;;;;;;;10.67;6.67;;;;;;;3.98;64.07;96390.84;5051469;28;20215;-80
2023/03/08 05:57:11;;;;;;;10.37;6.53;;;;;;;4.00;64.36;96401.19;5051226;28;20222;-80
2023/03/08 05:59:38;;;;;;;10.70;7.10;;;;;;;3.99;64.61;96405.63;5051334;28;20242;-81
2023/03/08 06:02:04;;;;;;;11.73;7.57;;;;;;;4.02;64.49;96405.38;5051391;28;20234;-80
2023/03/08 06:04:31;;;;;;;10.30;6.77;;;;;;;4.00;64.62;96412.50;5051560;28;20246;-80
2023/03/08 06:06:59;;;;;;;11.10;6.97;;;;;;;4.03;64.70;96414.88;5051261;28;20215;-81
2023/03/08 06:09:26;;;;;;;10.13;6.67;;;;;;;4.03;64.54;96412.28;5051416;28;20231;-80
2023/03/08 06:11:54;;;;;;;11.30;7.50;;;;;;;4.04;64.50;96416.56;5051214;28;20211;-80
2023/03/08 06:14:21;;;;;;;13.17;7.60;;;;;;;4.06;64.90;96408.59;5051287;28;20558;-80
2023/03/08 06:16:47;;;;;;;11.27;7.20;;;;;;;4.08;65.32;96410.16;5050973;28;20220;-80
2023/03/08 06:19:14;;;;;;;13.50;7.27;;;;;;;4.13;65.23;96402.84;5051424;28;20703;-80
2023/03/08 06:21:40;;;;;;;10.87;6.87;;;;;;;4.14;64.66;96398.44;5051262;28;20257;-80
2023/03/08 06:24:08;;;;;;;11.23;7.40;;;;;;;4.28;64.06;96395.69;5051208;28;20244;-80
2023/03/08 06:26:35;;;;;;;12.10;7.70;;;;;;;4.27;63.76;96394.84;5050991;28;20212;-80
2023/03/08 06:29:01;;;;;;;11.57;6.90;;;;;;;4.29;64.27;96392.94;5050912;28;20238;-80
2023/03/08 06:31:28;;;;;;;10.37;6.93;;;;;;;4.28;64.00;96386.06;5051002;28;20688;-80
2023/03/08 06:33:54;;;;;;;11.23;7.20;;;;;;;4.29;64.40;96390.31;5051109;28;20204;-80
2023/03/08 06:36:22;;;;;;;12.50;8.00;;;;;;;4.30;64.97;96383.34;5050879;28;20652;-80
2023/03/08 06:38:49;;;;;;;10.77;7.13;;;;;;;4.32;64.82;96382.28;5050921;28;20238;-80
2023/03/08 06:41:18;;;;;;;11.47;6.97;;;;;;;4.34;65.10;96380.38;5050914;28;20212;-80
2023/03/08 06:43:45;;;;;;;11.07;6.97;;;;;;;4.36;65.45;96368.06;5050684;28;20211;-80
2023/03/08 06:46:15;;;;;;;11.27;7.83;;;;;;;4.38;65.19;96367.91;5050958;28;20207;-80
2023/03/08 06:48:42;;;;;;;13.33;8.50;;;;;;;4.43;64.61;96355.34;5069229;22;20225;-82
2023/03/08 06:51:09;;;;;;;14.10;8.10;;;;;;;4.49;65.27;96366.22;5060490;28;20211;-83
2023/03/08 06:53:37;;;;;;;13.90;7.73;;;;;;;4.47;65.81;96370.69;5051153;28;20682;-84
2023/03/08 06:56:03;;;;;;;13.37;8.33;;;;;;;4.46;66.65;96368.22;5051079;28;20568;-83
2023/03/08 06:58:32;;;;;;;12.30;7.50;;;;;;;4.47;67.16;96368.06;5052701;28;20331;-84
2023/03/08 07:00:59;;;;;;;11.57;7.67;;;;;;;4.49;66.41;96363.59;5051735;28;20223;-83
2023/03/08 07:03:25;;;;;;;12.97;8.13;;;;;;;4.55;65.98;96357.91;5051597;28;20218;-84
2023/03/08 07:05:52;;;;;;;13.83;8.50;;;;;;;4.56;65.88;96351.72;5051442;28;20224;-83
2023/03/08 07:08:18;;;;;;;11.43;8.03;;;;;;;4.64;65.57;96351.97;5055274;28;20235;-84
2023/03/08 07:10:45;;;;;;;13.83;8.50;;;;;;;4.76;65.71;96335.38;5055719;28;20221;-84
2023/03/08 07:13:11;;;;;;;13.37;8.93;;;;;;;4.75;65.11;96338.94;5055510;28;20216;-84
2023/03/08 07:15:40;;;;;;;13.27;8.80;;;;;;;4.77;65.00;96329.19;5055031;28;20223;-79
2023/03/08 07:18:06;;;;;;;12.47;8.23;;;;;;;4.77;65.11;96321.34;5054533;28;20232;-79
2023/03/08 07:20:33;;;;;;;12.40;7.93;;;;;;;4.79;64.98;96321.22;5054786;28;20581;-78
2023/03/08 07:23:00;;;;;;;11.90;7.93;;;;;;;4.81;64.86;96325.41;5054930;28;20213;-79
2023/03/08 07:25:27;;;;;;;12.07;8.50;;;;;;;4.83;64.04;96318.25;5054713;28;20282;-78
2023/03/08 07:27:54;;;;;;;11.93;7.73;;;;;;;4.84;64.44;96317.31;5054801;28;20216;-86
2023/03/08 07:30:21;;;;;;;13.13;8.57;;;;;;;4.87;64.60;96313.63;5055722;28;20205;-82
2023/03/08 07:32:49;;;;;;;12.47;7.80;;;;;;;4.89;64.46;96311.75;5054855;28;20212;-83
2023/03/08 07:35:16;;;;;;;12.40;8.13;;;;;;;4.89;64.38;96309.13;5054758;28;20303;-85
2023/03/08 07:37:45;;;;;;;12.30;7.93;;;;;;;4.85;64.71;96308.53;5054294;28;20216;-84
2023/03/08 07:40:12;;;;;;;11.83;8.37;;;;;;;4.94;65.03;96299.97;5055206;28;20212;-84
2023/03/08 07:42:39;;;;;;;13.30;8.10;;;;;;;4.89;64.92;96294.25;5054881;28;20209;-83
2023/03/08 07:45:06;;;;;;;11.97;7.73;;;;;;;4.87;65.12;96288.31;5054332;28;20232;-84
2023/03/08 07:47:33;;;;;;;13.23;7.83;;;;;;;4.90;65.58;96288.06;5054777;28;20568;-82
2023/03/08 07:50:01;;;;;;;13.33;8.33;;;;;;;5.09;64.25;96275.25;5052805;28;20247;-84
2023/03/08 07:52:27;;;;;;;12.67;7.90;;;;;;;5.10;64.47;96284.78;5052273;28;20208;-84
2023/03/08 07:54:54;;;;;;;12.03;7.73;;;;;;;5.03;65.17;96291.44;5053593;28;20217;-82
2023/03/08 07:57:21;;;;;;;12.93;8.20;;;;;;;4.95;66.06;96288.53;5052563;28;20238;-82
2023/03/08 07:59:47;;;;;;;13.90;9.07;;;;;;;5.06;66.41;96280.72;5052300;28;20246;-81
2023/03/08 08:02:14;;;;;;;13.70;8.40;;;;;;;5.13;66.70;96281.09;5053118;28;20211;-81
2023/03/08 08:04:41;;;;;;;13.97;7.77;;;;;;;5.16;67.32;96273.84;5054557;28;20228;-81
2023/03/08 08:07:12;;;;;;;14.60;8.37;;;;;;;5.12;66.33;96269.78;5055782;28;20227;-80
2023/03/08 08:09:39;;;;;;;14.87;9.17;;;;;;;5.28;66.23;96258.94;5055550;28;20235;-79
2023/03/08 08:12:06;;;;;;;13.27;7.87;;;;;;;5.29;66.47;96256.22;5061688;28;20216;-80
2023/03/08 08:14:33;;;;;;;13.90;8.67;;;;;;;5.36;65.78;96252.16;5058126;28;20204;-80
2023/03/08 08:17:00;;;;;;;12.83;8.57;;;;;;;5.44;65.10;96246.31;5066527;28;20211;-79
2023/03/08 08:19:27;;;;;;;13.30;9.17;;;;;;;5.52;65.62;96231.69;5066278;28;20224;-78
2023/03/08 08:21:54;;;;;;;12.27;8.47;;;;;;;5.54;65.40;96227.13;5072121;28;20227;-80
2023/03/08 08:24:21;;;;;;;12.93;8.67;;;;;;;5.41;65.61;96238.69;5068511;28;20236;-80
2023/03/08 08:26:48;;;;;;;14.67;9.30;;;;;;;5.51;65.84;96214.25;5071552;28;20221;-80
2023/03/08 08:29:14;;;;;;;13.20;8.73;;;;;;;5.59;66.11;96222.38;5068031;28;20230;-80
2023/03/08 08:31:41;;;;;;;13.43;8.97;;;;;;;5.56;65.33;96201.63;5072230;28;20211;-79
2023/03/08 08:34:08;;;;;;;14.33;8.50;;;;;;;5.59;66.79;96190.09;5067136;28;20209;-79
2023/03/08 08:36:35;;;;;;;15.23;9.37;;;;;;;5.46;67.56;96181.53;5071881;28;20221;-78
2023/03/08 08:39:02;;;;;;;16.42;9.27;;;;;;;5.51;68.40;96187.25;5068443;28;20437;-77
2023/03/08 08:41:31;;;;;;;14.90;8.97;;;;;;;5.37;71.61;96201.44;5069599;28;20269;-78
2023/03/08 08:43:59;;;;;;;15.70;9.27;;;;;;;5.33;75.11;96221.00;5071854;28;20208;-81
2023/03/08 08:46:26;;;;;;;16.73;9.30;;;;;;;5.22;78.26;96218.38;5073326;28;20244;-81
2023/03/08 08:48:53;;;;;;;14.07;9.10;;;;;;;5.07;81.22;96227.41;5071710;28;20242;-80
2023/03/08 08:51:20;;;;;;;14.37;8.80;;;;;;;4.93;82.86;96227.66;5065998;28;20200;-85
2023/03/08 08:53:47;;;;;;;13.90;8.77;;;;;;;4.92;85.89;96214.66;5073243;28;20264;-80
2023/03/08 08:56:15;;;;;;;13.43;8.63;;;;;;;4.91;88.28;96198.16;5069176;28;20196;-85
2023/03/08 08:58:45;;;;;;;13.13;8.67;;;;;;;4.89;88.12;96207.88;5076829;28;20212;-85
2023/03/08 09:01:16;;;;;;;17.13;9.00;;;;;;;4.88;88.85;96202.78;5068307;28;20297;-87
2023/03/08 09:03:43;;;;;;;15.67;9.20;;;;;;;4.84;90.34;96198.72;5078524;28;20200;-86
2023/03/08 09:06:10;;;;;;;15.53;8.23;;;;;;;4.90;88.30;96172.91;5078257;28;20228;-86
2023/03/08 09:08:36;;;;;;;13.30;8.40;;;;;;;4.89;88.70;96192.19;5078348;28;20213;-85
2023/03/08 09:11:04;;;;;;;14.27;8.73;;;;;;;4.90;89.88;96185.16;5078420;28;20197;-85
2023/03/08 09:13:31;;;;;;;13.73;7.90;;;;;;;5.14;88.55;96193.72;5078491;28;20193;-85
2023/03/08 09:15:59;;;;;;;12.40;8.53;;;;;;;5.10;89.91;96182.66;5078286;28;20192;-87
2023/03/08 09:18:26;;;;;;;14.17;9.43;;;;;;;5.17;91.55;96194.31;5077554;28;20287;-85
2023/03/08 09:20:52;;;;;;;14.83;9.23;;;;;;;5.15;92.14;96191.00;5076651;28;20215;-87
2023/03/08 09:23:19;;;;;;;13.50;9.10;;;;;;;5.31;90.45;96175.72;5057490;28;20208;-85
2023/03/08 09:25:45;;;;;;;14.67;9.03;;;;;;;5.44;89.27;96163.31;5054341;28;20236;-85
2023/03/08 09:28:12;;;;;;;16.17;9.00;;;;;;;5.52;90.36;96160.09;5054109;28;20231;-86
2023/03/08 09:30:38;;;;;;;13.00;8.47;;;;;;;5.49;86.39;96152.50;5052975;28;20569;-85
2023/03/08 09:33:06;;;;;;;13.50;8.77;;;;;;;5.54;88.49;96148.53;5054461;28;20223;-87
2023/03/08 09:35:33;;;;;;;15.63;8.93;;;;;;;5.63;87.94;96139.91;5058404;28;20240;-86
2023/03/08 09:38:00;;;;;;;15.47;9.57;;;;;;;5.65;87.37;96135.41;5064630;28;20318;-86
2023/03/08 09:40:29;;;;;;;15.37;8.73;;;;;;;5.71;87.63;96124.44;5065368;28;20299;-86
2023/03/08 09:43:03;;;;;;;14.07;8.70;;;;;;;5.76;86.75;96113.56;5062283;28;20219;-86
2023/03/08 09:45:29;;;;;;;13.27;9.30;;;;;;;5.88;83.57;96092.47;5060817;28;20257;-86
2023/03/08 09:48:03;;;;;;;14.87;9.60;;;;;;;6.00;83.98;96096.69;5053625;28;20208;-87
2023/03/08 09:50:46;;;;;;;15.77;9.93;;;;;;;6.10;83.05;96091.50;5053502;28;20215;-86
2023/03/08 09:53:28;;;;;;;14.20;9.40;;;;;;;6.11;84.04;96101.84;5053096;28;20216;-86
2023/03/08 09:55:58;;;;;;;15.97;9.97;;;;;;;6.23;82.98;96077.22;5052479;28;20208;-87
2023/03/08 09:58:40;;;;;;;14.83;9.60;;;;;;;6.28;82.89;96082.91;5052669;28;20786;-87
2023/03/08 10:01:21;;;;;;;13.97;9.57;;;;;;;6.41;82.66;96075.66;5053442;28;20210;-87
2023/03/08 10:04:21;;;;;;;13.00;9.17;;;;;;;6.56;80.97;96061.25;5054139;28;20259;-86
2023/03/08 10:07:00;;;;;;;12.30;8.57;;;;;;;6.70;79.27;96050.38;5038252;28;20210;-87
2023/03/08 10:09:33;;;;;;;17.27;9.20;;;;;;;6.84;77.02;96042.13;5052522;28;20231;-86
2023/03/08 10:12:09;;;;;;;11.90;8.60;;;;;;;7.08;75.06;96033.91;5052856;28;20211;-86
2023/03/08 10:14:38;;;;;;;15.80;10.03;;;;;;;7.12;73.39;96030.03;5056765;28;20303;-86
2023/03/08 10:17:12;;;;;;;12.83;9.23;;;;;;;7.18;73.02;96025.06;5071946;28;20239;-83
2023/03/08 10:19:42;;;;;;;12.33;8.47;;;;;;;7.20;72.81;96012.63;5072292;28;20242;-85
2023/03/08 10:22:25;;;;;;;14.10;8.27;;;;;;;7.26;74.59;96021.78;5060497;28;20218;-86
2023/03/08 10:24:57;;;;;;;10.97;7.73;;;;;;;7.29;75.54;96038.09;5055286;28;20206;-86
2023/03/08 10:27:26;;;;;;;13.27;8.33;;;;;;;7.41;74.07;96018.59;5054562;28;20218;-84
2023/03/08 10:29:55;;;;;;;12.07;8.17;;;;;;;7.36;74.11;96026.06;5052291;28;20259;-87
2023/03/08 10:32:23;;;;;;;11.87;8.03;;;;;;;7.40;73.34;96016.91;5052141;28;20218;-86
2023/03/08 10:34:49;;;;;;;12.70;7.73;;;;;;;7.41;73.68;96010.72;5052353;28;20207;-86
2023/03/08 10:37:20;;;;;;;11.93;8.00;;;;;;;7.38;74.19;96010.97;5053026;28;20208;-86
2023/03/08 10:39:51;;;;;;;14.10;8.73;;;;;;;7.37;74.87;96014.56;5053716;28;20226;-86
2023/03/08 10:42:21;;;;;;;14.50;8.73;;;;;;;7.50;75.22;96009.88;5060224;28;20208;-86
2023/03/08 10:44:54;;;;;;;12.30;8.40;;;;;;;7.47;75.44;96007.53;5052601;28;20216;-86
2023/03/08 10:47:22;;;;;;;11.73;6.97;;;;;;;7.54;78.99;96016.53;5052148;28;20205;-86
2023/03/08 10:49:50;;;;;;;8.37;6.30;;;;;;;7.78;80.29;96017.72;5051957;28;20247;-86
2023/03/08 10:52:25;;;;;;;7.97;5.20;;;;;;;7.95;83.61;96027.53;5052371;28;20297;-85
2023/03/08 10:55:01;;;;;;;6.27;3.50;;;;;;;8.21;88.12;96023.34;5053241;28;20209;-86
2023/03/08 10:57:29;;;;;;;3.80;3.13;;;;;;;8.46;88.14;96014.00;5052962;28;20647;-86
2023/03/08 11:00:00;;;;;;;4.97;3.43;;;;;;;8.63;88.03;96015.88;5052773;28;20230;-85
2023/03/08 11:02:27;;;;;;;4.87;2.97;;;;;;;8.78;86.86;96006.50;5052730;28;20243;-85
2023/03/08 11:04:55;;;;;;;4.70;2.77;;;;;;;8.86;86.51;96019.75;5051672;28;20678;-85
2023/03/08 11:07:25;;;;;;;4.50;3.43;;;;;;;8.87;87.00;96008.28;5051939;28;20233;-85
2023/03/08 11:09:52;;;;;;;4.60;3.10;;;;;;;9.07;86.87;96015.09;5051978;28;20231;-82
2023/03/08 11:12:24;;;;;;;5.50;3.03;;;;;;;9.07;85.92;96002.72;5051982;28;20591;-85
2023/03/08 11:14:51;;;;;;;4.33;2.80;;;;;;;9.30;85.85;96003.16;5051691;28;20220;-80
2023/03/08 11:17:22;;;;;;;3.20;2.50;;;;;;;9.39;84.67;95997.81;5050893;28;20200;-81
2023/03/08 11:19:58;;;;;;;2.83;2.20;;;;;;;9.48;84.68;95999.53;5051091;28;20231;-77
2023/03/08 11:22:55;;;;;;;4.57;2.27;;;;;;;9.58;85.59;96004.72;5051079;28;20310;-78
2023/03/08 11:25:33;;;;;;;1.93;1.53;;;;;;;9.71;85.32;95994.59;5055358;28;20218;-86
2023/03/08 11:28:35;;;;;;;2.13;1.60;;;;;;;9.74;85.06;95996.97;5052697;28;20227;-80
2023/03/08 11:31:14;;;;;;;1.80;1.23;;;;;;;9.78;85.45;96007.03;5050412;28;20446;-81
2023/03/08 11:33:59;;;;;;;2.50;1.40;;;;;;;9.87;86.27;96005.31;5051487;28;20209;-85
2023/03/08 11:36:32;;;;;;;1.63;1.07;;;;;;;9.98;85.97;96005.88;5051937;28;20247;-86
2023/03/08 11:39:09;;;;;;;2.40;1.07;;;;;;;10.09;85.04;95970.53;5050864;28;20224;-87
2023/03/08 11:41:43;;;;;;;1.23;1.00;;;;;;;10.19;85.70;95992.38;5050998;28;20208;-85